sensor_id;sensor_type;location;lat;lon;timestamp;P1;durP1;ratioP1;P2;durP2;ratioP2
26261;SDS011;13988;52.446;13.280;2023-12-20T00:01:47;2.05;;;1.92;;
26261;SDS011;13988;52.446;13.280;2023-12-20T00:04:12;2.47;;;1.92;;
26261;SDS011;13988;52.446;13.280;2023-12-20T00:06:38;2.58;;;1.80;;
26261;SDS011;13988;52.446;13.280;2023-12-20T00:09:03;3.25;;;1.90;;
26261;SDS011;13988;52.446;13.280;2023-12-20T00:11:29;2.40;;;2.15;;
26261;SDS011;13988;52.446;13.280;2023-12-20T00:13:55;2.50;;;2.25;;
26261;SDS011;13988;52.446;13.280;2023-12-20T00:16:20;2.20;;;2.00;;
26261;SDS011;13988;52.446;13.280;2023-12-20T00:18:46;1.92;;;1.58;;
26261;SDS011;13988;52.446;13.280;2023-12-20T00:21:11;2.70;;;2.08;;
26261;SDS011;13988;52.446;13.280;2023-12-20T00:23:37;2.03;;;1.80;;
26261;SDS011;13988;52.446;13.280;2023-12-20T00:26:03;2.45;;;2.05;;
26261;SDS011;13988;52.446;13.280;2023-12-20T00:28:28;2.88;;;2.05;;
26261;SDS011;13988;52.446;13.280;2023-12-20T00:30:54;3.05;;;2.03;;
26261;SDS011;13988;52.446;13.280;2023-12-20T00:33:19;2.17;;;1.98;;
26261;SDS011;13988;52.446;13.280;2023-12-20T00:35:45;2.22;;;2.03;;
26261;SDS011;13988;52.446;13.280;2023-12-20T00:38:11;2.35;;;1.77;;
26261;SDS011;13988;52.446;13.280;2023-12-20T00:40:36;2.60;;;1.60;;
26261;SDS011;13988;52.446;13.280;2023-12-20T00:43:02;2.13;;;1.73;;
26261;SDS011;13988;52.446;13.280;2023-12-20T00:45:28;1.92;;;1.60;;
26261;SDS011;13988;52.446;13.280;2023-12-20T00:47:54;2.47;;;1.75;;
26261;SDS011;13988;52.446;13.280;2023-12-20T00:50:19;2.25;;;2.03;;
26261;SDS011;13988;52.446;13.280;2023-12-20T00:52:46;1.88;;;1.38;;
26261;SDS011;13988;52.446;13.280;2023-12-20T00:55:12;2.30;;;2.00;;
26261;SDS011;13988;52.446;13.280;2023-12-20T00:57:38;1.83;;;1.73;;
26261;SDS011;13988;52.446;13.280;2023-12-20T01:00:04;1.83;;;1.73;;
26261;SDS011;13988;52.446;13.280;2023-12-20T01:02:30;1.65;;;1.52;;
26261;SDS011;13988;52.446;13.280;2023-12-20T01:04:56;2.03;;;1.70;;
26261;SDS011;13988;52.446;13.280;2023-12-20T01:07:22;1.88;;;1.52;;
26261;SDS011;13988;52.446;13.280;2023-12-20T01:09:47;1.88;;;1.70;;
26261;SDS011;13988;52.446;13.280;2023-12-20T01:12:13;1.70;;;1.52;;
26261;SDS011;13988;52.446;13.280;2023-12-20T01:14:38;1.33;;;1.13;;
26261;SDS011;13988;52.446;13.280;2023-12-20T01:17:04;1.92;;;1.23;;
26261;SDS011;13988;52.446;13.280;2023-12-20T01:19:30;2.08;;;1.63;;
26261;SDS011;13988;52.446;13.280;2023-12-20T01:21:56;1.65;;;1.50;;
26261;SDS011;13988;52.446;13.280;2023-12-20T01:24:21;2.13;;;1.92;;
26261;SDS011;13988;52.446;13.280;2023-12-20T01:26:47;1.70;;;1.60;;
26261;SDS011;13988;52.446;13.280;2023-12-20T01:29:12;1.40;;;1.30;;
26261;SDS011;13988;52.446;13.280;2023-12-20T01:31:39;1.90;;;1.65;;
26261;SDS011;13988;52.446;13.280;2023-12-20T01:34:05;1.75;;;1.40;;
26261;SDS011;13988;52.446;13.280;2023-12-20T01:36:31;2.13;;;1.50;;
26261;SDS011;13988;52.446;13.280;2023-12-20T01:38:57;1.30;;;1.20;;
26261;SDS011;13988;52.446;13.280;2023-12-20T01:41:22;2.15;;;1.90;;
26261;SDS011;13988;52.446;13.280;2023-12-20T01:43:48;1.48;;;1.38;;
26261;SDS011;13988;52.446;13.280;2023-12-20T01:46:14;1.30;;;1.20;;
26261;SDS011;13988;52.446;13.280;2023-12-20T01:48:40;1.95;;;1.52;;
26261;SDS011;13988;52.446;13.280;2023-12-20T01:51:06;2.28;;;1.98;;
26261;SDS011;13988;52.446;13.280;2023-12-20T01:53:32;2.58;;;1.80;;
26261;SDS011;13988;52.446;13.280;2023-12-20T01:55:59;2.20;;;1.80;;
26261;SDS011;13988;52.446;13.280;2023-12-20T01:58:25;1.95;;;1.58;;
26261;SDS011;13988;52.446;13.280;2023-12-20T02:00:51;1.83;;;1.73;;
26261;SDS011;13988;52.446;13.280;2023-12-20T02:03:17;2.47;;;1.77;;
26261;SDS011;13988;52.446;13.280;2023-12-20T02:05:43;1.70;;;1.50;;
26261;SDS011;13988;52.446;13.280;2023-12-20T02:08:10;2.08;;;1.85;;
26261;SDS011;13988;52.446;13.280;2023-12-20T02:10:36;3.35;;;2.03;;
26261;SDS011;13988;52.446;13.280;2023-12-20T02:13:02;2.50;;;2.15;;
26261;SDS011;13988;52.446;13.280;2023-12-20T02:15:29;3.03;;;2.10;;
26261;SDS011;13988;52.446;13.280;2023-12-20T02:17:55;2.10;;;1.92;;
26261;SDS011;13988;52.446;13.280;2023-12-20T02:20:20;2.72;;;2.35;;
26261;SDS011;13988;52.446;13.280;2023-12-20T02:22:46;2.53;;;2.15;;
26261;SDS011;13988;52.446;13.280;2023-12-20T02:25:12;2.25;;;1.95;;
26261;SDS011;13988;52.446;13.280;2023-12-20T02:27:38;2.97;;;2.38;;
26261;SDS011;13988;52.446;13.280;2023-12-20T02:30:04;4.35;;;2.20;;
26261;SDS011;13988;52.446;13.280;2023-12-20T02:32:31;2.97;;;1.95;;
26261;SDS011;13988;52.446;13.280;2023-12-20T02:34:57;4.38;;;2.72;;
26261;SDS011;13988;52.446;13.280;2023-12-20T02:37:23;3.88;;;2.95;;
26261;SDS011;13988;52.446;13.280;2023-12-20T02:39:49;2.72;;;1.95;;
26261;SDS011;13988;52.446;13.280;2023-12-20T02:42:14;3.25;;;2.50;;
26261;SDS011;13988;52.446;13.280;2023-12-20T02:44:40;6.03;;;2.95;;
26261;SDS011;13988;52.446;13.280;2023-12-20T02:47:06;4.13;;;3.00;;
26261;SDS011;13988;52.446;13.280;2023-12-20T02:49:31;4.93;;;3.67;;
26261;SDS011;13988;52.446;13.280;2023-12-20T02:51:57;4.70;;;3.47;;
26261;SDS011;13988;52.446;13.280;2023-12-20T02:54:22;5.60;;;3.03;;
26261;SDS011;13988;52.446;13.280;2023-12-20T02:56:48;4.30;;;3.28;;
26261;SDS011;13988;52.446;13.280;2023-12-20T02:59:14;3.95;;;3.05;;
26261;SDS011;13988;52.446;13.280;2023-12-20T03:01:41;4.10;;;3.00;;
26261;SDS011;13988;52.446;13.280;2023-12-20T03:04:10;4.95;;;3.25;;
26261;SDS011;13988;52.446;13.280;2023-12-20T03:06:35;4.45;;;3.50;;
26261;SDS011;13988;52.446;13.280;2023-12-20T03:09:01;4.82;;;3.78;;
26261;SDS011;13988;52.446;13.280;2023-12-20T03:11:27;5.10;;;3.72;;
26261;SDS011;13988;52.446;13.280;2023-12-20T03:13:53;4.90;;;3.50;;
26261;SDS011;13988;52.446;13.280;2023-12-20T03:16:19;7.28;;;3.78;;
26261;SDS011;13988;52.446;13.280;2023-12-20T03:18:44;4.93;;;3.67;;
26261;SDS011;13988;52.446;13.280;2023-12-20T03:21:10;5.50;;;3.33;;
26261;SDS011;13988;52.446;13.280;2023-12-20T03:23:35;5.60;;;3.78;;
26261;SDS011;13988;52.446;13.280;2023-12-20T03:26:01;10.57;;;3.90;;
26261;SDS011;13988;52.446;13.280;2023-12-20T03:28:27;7.35;;;4.38;;
26261;SDS011;13988;52.446;13.280;2023-12-20T03:30:53;4.97;;;3.40;;
26261;SDS011;13988;52.446;13.280;2023-12-20T03:33:18;6.18;;;4.03;;
26261;SDS011;13988;52.446;13.280;2023-12-20T03:35:44;3.75;;;2.92;;
26261;SDS011;13988;52.446;13.280;2023-12-20T03:38:10;5.28;;;3.00;;
26261;SDS011;13988;52.446;13.280;2023-12-20T03:40:35;4.63;;;3.72;;
26261;SDS011;13988;52.446;13.280;2023-12-20T03:43:01;5.43;;;3.30;;
26261;SDS011;13988;52.446;13.280;2023-12-20T03:45:27;5.28;;;2.80;;
26261;SDS011;13988;52.446;13.280;2023-12-20T03:47:52;5.50;;;3.40;;
26261;SDS011;13988;52.446;13.280;2023-12-20T03:50:20;6.95;;;3.67;;
26261;SDS011;13988;52.446;13.280;2023-12-20T03:52:49;6.53;;;3.88;;
26261;SDS011;13988;52.446;13.280;2023-12-20T03:55:16;6.45;;;2.95;;
26261;SDS011;13988;52.446;13.280;2023-12-20T03:57:41;5.57;;;2.90;;
26261;SDS011;13988;52.446;13.280;2023-12-20T04:00:07;5.68;;;2.70;;
26261;SDS011;13988;52.446;13.280;2023-12-20T04:02:35;4.80;;;2.60;;
26261;SDS011;13988;52.446;13.280;2023-12-20T04:05:05;3.42;;;2.20;;
26261;SDS011;13988;52.446;13.280;2023-12-20T04:07:31;4.35;;;2.55;;
26261;SDS011;13988;52.446;13.280;2023-12-20T04:09:57;4.45;;;2.70;;
26261;SDS011;13988;52.446;13.280;2023-12-20T04:12:22;1.77;;;1.67;;
26261;SDS011;13988;52.446;13.280;2023-12-20T04:14:48;4.95;;;3.05;;
26261;SDS011;13988;52.446;13.280;2023-12-20T04:17:14;3.50;;;2.53;;
26261;SDS011;13988;52.446;13.280;2023-12-20T04:19:44;10.43;;;2.53;;
26261;SDS011;13988;52.446;13.280;2023-12-20T04:22:09;7.25;;;2.05;;
26261;SDS011;13988;52.446;13.280;2023-12-20T04:24:35;2.63;;;1.85;;
26261;SDS011;13988;52.446;13.280;2023-12-20T04:27:01;6.03;;;3.85;;
26261;SDS011;13988;52.446;13.280;2023-12-20T04:29:27;4.95;;;1.48;;
26261;SDS011;13988;52.446;13.280;2023-12-20T04:31:52;6.45;;;1.80;;
26261;SDS011;13988;52.446;13.280;2023-12-20T04:34:18;2.95;;;2.05;;
26261;SDS011;13988;52.446;13.280;2023-12-20T04:36:44;4.00;;;1.60;;
26261;SDS011;13988;52.446;13.280;2023-12-20T04:39:11;2.58;;;1.73;;
26261;SDS011;13988;52.446;13.280;2023-12-20T04:41:38;3.53;;;1.60;;
26261;SDS011;13988;52.446;13.280;2023-12-20T04:44:04;4.03;;;1.45;;
26261;SDS011;13988;52.446;13.280;2023-12-20T04:46:31;3.35;;;2.05;;
26261;SDS011;13988;52.446;13.280;2023-12-20T04:48:56;1.83;;;1.33;;
26261;SDS011;13988;52.446;13.280;2023-12-20T04:51:22;3.15;;;1.70;;
26261;SDS011;13988;52.446;13.280;2023-12-20T04:53:48;5.90;;;1.80;;
26261;SDS011;13988;52.446;13.280;2023-12-20T04:56:13;1.38;;;0.80;;
26261;SDS011;13988;52.446;13.280;2023-12-20T04:58:39;4.07;;;1.60;;
26261;SDS011;13988;52.446;13.280;2023-12-20T05:01:08;6.22;;;1.55;;
26261;SDS011;13988;52.446;13.280;2023-12-20T05:03:34;2.67;;;1.08;;
26261;SDS011;13988;52.446;13.280;2023-12-20T05:06:00;1.00;;;0.82;;
26261;SDS011;13988;52.446;13.280;2023-12-20T05:08:26;3.97;;;1.85;;
26261;SDS011;13988;52.446;13.280;2023-12-20T05:10:53;4.43;;;0.98;;
26261;SDS011;13988;52.446;13.280;2023-12-20T05:13:19;2.92;;;1.05;;
26261;SDS011;13988;52.446;13.280;2023-12-20T05:15:45;3.55;;;1.13;;
26261;SDS011;13988;52.446;13.280;2023-12-20T05:18:11;7.68;;;1.83;;
26261;SDS011;13988;52.446;13.280;2023-12-20T05:20:37;2.53;;;1.33;;
26261;SDS011;13988;52.446;13.280;2023-12-20T05:23:03;1.30;;;0.70;;
26261;SDS011;13988;52.446;13.280;2023-12-20T05:25:29;4.90;;;1.35;;
26261;SDS011;13988;52.446;13.280;2023-12-20T05:27:54;2.47;;;0.85;;
26261;SDS011;13988;52.446;13.280;2023-12-20T05:30:21;1.63;;;0.88;;
26261;SDS011;13988;52.446;13.280;2023-12-20T05:32:46;0.20;;;0.20;;
26261;SDS011;13988;52.446;13.280;2023-12-20T05:35:12;3.22;;;1.17;;
26261;SDS011;13988;52.446;13.280;2023-12-20T05:37:38;2.20;;;0.98;;
26261;SDS011;13988;52.446;13.280;2023-12-20T05:40:03;1.27;;;0.73;;
26261;SDS011;13988;52.446;13.280;2023-12-20T05:42:30;5.82;;;1.20;;
26261;SDS011;13988;52.446;13.280;2023-12-20T05:44:55;8.68;;;0.80;;
26261;SDS011;13988;52.446;13.280;2023-12-20T05:47:21;0.63;;;0.63;;
26261;SDS011;13988;52.446;13.280;2023-12-20T05:49:46;1.30;;;1.20;;
26261;SDS011;13988;52.446;13.280;2023-12-20T05:52:12;3.40;;;1.60;;
26261;SDS011;13988;52.446;13.280;2023-12-20T05:54:38;4.00;;;1.20;;
26261;SDS011;13988;52.446;13.280;2023-12-20T05:57:03;0.85;;;0.57;;
26261;SDS011;13988;52.446;13.280;2023-12-20T05:59:29;3.20;;;1.20;;
26261;SDS011;13988;52.446;13.280;2023-12-20T06:01:55;5.55;;;1.15;;
26261;SDS011;13988;52.446;13.280;2023-12-20T06:04:20;5.32;;;0.88;;
26261;SDS011;13988;52.446;13.280;2023-12-20T06:06:46;2.72;;;1.10;;
26261;SDS011;13988;52.446;13.280;2023-12-20T06:09:12;1.48;;;0.85;;
26261;SDS011;13988;52.446;13.280;2023-12-20T06:11:37;2.47;;;1.08;;
26261;SDS011;13988;52.446;13.280;2023-12-20T06:14:03;0.90;;;0.90;;
26261;SDS011;13988;52.446;13.280;2023-12-20T06:16:29;1.70;;;1.00;;
26261;SDS011;13988;52.446;13.280;2023-12-20T06:18:54;3.42;;;1.35;;
26261;SDS011;13988;52.446;13.280;2023-12-20T06:21:20;6.47;;;1.00;;
26261;SDS011;13988;52.446;13.280;2023-12-20T06:23:46;5.40;;;1.98;;
26261;SDS011;13988;52.446;13.280;2023-12-20T06:26:11;3.60;;;1.40;;
26261;SDS011;13988;52.446;13.280;2023-12-20T06:28:37;3.35;;;1.38;;
26261;SDS011;13988;52.446;13.280;2023-12-20T06:31:02;1.55;;;1.27;;
26261;SDS011;13988;52.446;13.280;2023-12-20T06:33:28;4.18;;;0.98;;
26261;SDS011;13988;52.446;13.280;2023-12-20T06:35:56;7.20;;;0.95;;
26261;SDS011;13988;52.446;13.280;2023-12-20T06:38:22;6.38;;;1.73;;
26261;SDS011;13988;52.446;13.280;2023-12-20T06:40:47;1.73;;;0.90;;
26261;SDS011;13988;52.446;13.280;2023-12-20T06:43:13;6.18;;;0.90;;
26261;SDS011;13988;52.446;13.280;2023-12-20T06:45:39;3.30;;;1.27;;
26261;SDS011;13988;52.446;13.280;2023-12-20T06:48:04;1.60;;;1.08;;
26261;SDS011;13988;52.446;13.280;2023-12-20T06:50:30;2.40;;;1.02;;
26261;SDS011;13988;52.446;13.280;2023-12-20T06:52:56;1.90;;;1.05;;
26261;SDS011;13988;52.446;13.280;2023-12-20T06:55:22;3.58;;;2.28;;
26261;SDS011;13988;52.446;13.280;2023-12-20T06:57:48;2.20;;;1.00;;
26261;SDS011;13988;52.446;13.280;2023-12-20T07:00:14;3.17;;;1.30;;
26261;SDS011;13988;52.446;13.280;2023-12-20T07:02:40;3.25;;;1.23;;
26261;SDS011;13988;52.446;13.280;2023-12-20T07:05:05;4.03;;;1.13;;
26261;SDS011;13988;52.446;13.280;2023-12-20T07:07:31;1.13;;;1.08;;
26261;SDS011;13988;52.446;13.280;2023-12-20T07:09:57;5.72;;;1.55;;
26261;SDS011;13988;52.446;13.280;2023-12-20T07:12:22;7.72;;;1.40;;
26261;SDS011;13988;52.446;13.280;2023-12-20T07:14:48;3.97;;;0.77;;
26261;SDS011;13988;52.446;13.280;2023-12-20T07:17:14;7.68;;;1.20;;
26261;SDS011;13988;52.446;13.280;2023-12-20T07:19:40;9.90;;;1.30;;
26261;SDS011;13988;52.446;13.280;2023-12-20T07:22:06;7.30;;;1.60;;
26261;SDS011;13988;52.446;13.280;2023-12-20T07:24:32;3.75;;;1.50;;
26261;SDS011;13988;52.446;13.280;2023-12-20T07:27:01;0.80;;;0.80;;
26261;SDS011;13988;52.446;13.280;2023-12-20T07:29:27;1.42;;;0.75;;
26261;SDS011;13988;52.446;13.280;2023-12-20T07:31:53;8.77;;;1.35;;
26261;SDS011;13988;52.446;13.280;2023-12-20T07:34:20;1.67;;;0.85;;
26261;SDS011;13988;52.446;13.280;2023-12-20T07:36:46;1.88;;;0.98;;
26261;SDS011;13988;52.446;13.280;2023-12-20T07:39:12;4.32;;;1.73;;
26261;SDS011;13988;52.446;13.280;2023-12-20T07:41:37;2.05;;;1.85;;
26261;SDS011;13988;52.446;13.280;2023-12-20T07:44:04;3.15;;;1.15;;
26261;SDS011;13988;52.446;13.280;2023-12-20T07:46:30;4.13;;;0.90;;
26261;SDS011;13988;52.446;13.280;2023-12-20T07:48:55;2.10;;;1.10;;
26261;SDS011;13988;52.446;13.280;2023-12-20T07:51:21;3.78;;;1.35;;
26261;SDS011;13988;52.446;13.280;2023-12-20T07:53:47;7.03;;;1.02;;
26261;SDS011;13988;52.446;13.280;2023-12-20T07:56:18;8.18;;;1.45;;
26261;SDS011;13988;52.446;13.280;2023-12-20T07:58:45;3.10;;;0.82;;
26261;SDS011;13988;52.446;13.280;2023-12-20T08:01:13;1.52;;;0.82;;
26261;SDS011;13988;52.446;13.280;2023-12-20T08:03:38;2.15;;;1.20;;
26261;SDS011;13988;52.446;13.280;2023-12-20T08:06:04;2.35;;;0.80;;
26261;SDS011;13988;52.446;13.280;2023-12-20T08:08:30;4.47;;;1.42;;
26261;SDS011;13988;52.446;13.280;2023-12-20T08:10:55;1.05;;;0.95;;
26261;SDS011;13988;52.446;13.280;2023-12-20T08:13:24;0.80;;;0.80;;
26261;SDS011;13988;52.446;13.280;2023-12-20T08:15:51;1.63;;;0.80;;
26261;SDS011;13988;52.446;13.280;2023-12-20T08:18:17;2.60;;;1.00;;
26261;SDS011;13988;52.446;13.280;2023-12-20T08:20:43;1.92;;;0.95;;
26261;SDS011;13988;52.446;13.280;2023-12-20T08:23:09;1.20;;;1.10;;
26261;SDS011;13988;52.446;13.280;2023-12-20T08:25:34;2.15;;;0.93;;
26261;SDS011;13988;52.446;13.280;2023-12-20T08:28:01;7.97;;;2.10;;
26261;SDS011;13988;52.446;13.280;2023-12-20T08:30:28;1.90;;;0.98;;
26261;SDS011;13988;52.446;13.280;2023-12-20T08:32:54;1.55;;;1.42;;
26261;SDS011;13988;52.446;13.280;2023-12-20T08:35:20;5.70;;;1.05;;
26261;SDS011;13988;52.446;13.280;2023-12-20T08:37:46;3.75;;;1.10;;
26261;SDS011;13988;52.446;13.280;2023-12-20T08:40:11;4.82;;;1.33;;
26261;SDS011;13988;52.446;13.280;2023-12-20T08:42:37;4.13;;;1.38;;
26261;SDS011;13988;52.446;13.280;2023-12-20T08:45:03;4.32;;;1.48;;
26261;SDS011;13988;52.446;13.280;2023-12-20T08:47:29;1.35;;;0.50;;
26261;SDS011;13988;52.446;13.280;2023-12-20T08:49:55;9.05;;;1.42;;
26261;SDS011;13988;52.446;13.280;2023-12-20T08:52:23;2.38;;;2.15;;
26261;SDS011;13988;52.446;13.280;2023-12-20T08:54:49;3.75;;;1.13;;
26261;SDS011;13988;52.446;13.280;2023-12-20T08:57:17;3.15;;;1.30;;
26261;SDS011;13988;52.446;13.280;2023-12-20T08:59:45;5.10;;;1.25;;
26261;SDS011;13988;52.446;13.280;2023-12-20T09:02:12;2.42;;;0.85;;
26261;SDS011;13988;52.446;13.280;2023-12-20T09:04:37;1.35;;;0.82;;
26261;SDS011;13988;52.446;13.280;2023-12-20T09:07:03;8.50;;;1.35;;
26261;SDS011;13988;52.446;13.280;2023-12-20T09:09:28;0.70;;;0.68;;
26261;SDS011;13988;52.446;13.280;2023-12-20T09:11:55;1.85;;;1.15;;
26261;SDS011;13988;52.446;13.280;2023-12-20T09:14:21;1.25;;;0.77;;
26261;SDS011;13988;52.446;13.280;2023-12-20T09:16:47;3.92;;;0.88;;
26261;SDS011;13988;52.446;13.280;2023-12-20T09:19:12;7.13;;;0.93;;
26261;SDS011;13988;52.446;13.280;2023-12-20T09:21:38;3.53;;;1.45;;
26261;SDS011;13988;52.446;13.280;2023-12-20T09:24:03;1.75;;;0.75;;
26261;SDS011;13988;52.446;13.280;2023-12-20T09:26:29;4.35;;;0.80;;
26261;SDS011;13988;52.446;13.280;2023-12-20T09:28:55;2.63;;;0.75;;
26261;SDS011;13988;52.446;13.280;2023-12-20T09:31:20;3.40;;;1.10;;
26261;SDS011;13988;52.446;13.280;2023-12-20T09:33:47;9.20;;;2.15;;
26261;SDS011;13988;52.446;13.280;2023-12-20T09:36:12;3.15;;;1.05;;
26261;SDS011;13988;52.446;13.280;2023-12-20T09:38:39;4.80;;;1.58;;
26261;SDS011;13988;52.446;13.280;2023-12-20T09:41:04;4.13;;;1.65;;
26261;SDS011;13988;52.446;13.280;2023-12-20T09:43:31;6.22;;;1.20;;
26261;SDS011;13988;52.446;13.280;2023-12-20T09:46:00;1.52;;;0.93;;
26261;SDS011;13988;52.446;13.280;2023-12-20T09:48:30;5.28;;;1.25;;
26261;SDS011;13988;52.446;13.280;2023-12-20T09:50:57;1.58;;;1.25;;
26261;SDS011;13988;52.446;13.280;2023-12-20T09:53:23;6.45;;;1.08;;
26261;SDS011;13988;52.446;13.280;2023-12-20T09:55:54;2.38;;;1.20;;
26261;SDS011;13988;52.446;13.280;2023-12-20T09:58:25;6.93;;;1.20;;
26261;SDS011;13988;52.446;13.280;2023-12-20T10:00:51;8.88;;;1.58;;
26261;SDS011;13988;52.446;13.280;2023-12-20T10:03:19;5.97;;;1.50;;
26261;SDS011;13988;52.446;13.280;2023-12-20T10:05:49;2.10;;;0.90;;
26261;SDS011;13988;52.446;13.280;2023-12-20T10:08:20;5.03;;;1.70;;
26261;SDS011;13988;52.446;13.280;2023-12-20T10:10:47;3.72;;;1.58;;
26261;SDS011;13988;52.446;13.280;2023-12-20T10:13:12;11.50;;;1.42;;
26261;SDS011;13988;52.446;13.280;2023-12-20T10:15:38;2.83;;;1.05;;
26261;SDS011;13988;52.446;13.280;2023-12-20T10:18:04;2.78;;;1.08;;
26261;SDS011;13988;52.446;13.280;2023-12-20T10:20:31;1.08;;;0.80;;
26261;SDS011;13988;52.446;13.280;2023-12-20T10:22:57;9.18;;;1.33;;
26261;SDS011;13988;52.446;13.280;2023-12-20T10:25:24;6.25;;;2.35;;
26261;SDS011;13988;52.446;13.280;2023-12-20T10:27:50;3.42;;;0.98;;
26261;SDS011;13988;52.446;13.280;2023-12-20T10:30:35;3.00;;;1.10;;
26261;SDS011;13988;52.446;13.280;2023-12-20T10:33:01;2.92;;;1.00;;
26261;SDS011;13988;52.446;13.280;2023-12-20T10:35:26;6.18;;;1.90;;
26261;SDS011;13988;52.446;13.280;2023-12-20T10:37:53;2.92;;;1.08;;
26261;SDS011;13988;52.446;13.280;2023-12-20T10:40:21;4.38;;;1.05;;
26261;SDS011;13988;52.446;13.280;2023-12-20T10:42:47;2.42;;;1.17;;
26261;SDS011;13988;52.446;13.280;2023-12-20T10:45:14;7.07;;;1.25;;
26261;SDS011;13988;52.446;13.280;2023-12-20T10:47:42;2.63;;;1.23;;
26261;SDS011;13988;52.446;13.280;2023-12-20T10:50:11;0.40;;;0.40;;
26261;SDS011;13988;52.446;13.280;2023-12-20T10:52:37;4.82;;;1.17;;
26261;SDS011;13988;52.446;13.280;2023-12-20T10:55:03;3.63;;;1.75;;
26261;SDS011;13988;52.446;13.280;2023-12-20T10:57:30;8.60;;;1.25;;
26261;SDS011;13988;52.446;13.280;2023-12-20T10:59:55;4.93;;;1.83;;
26261;SDS011;13988;52.446;13.280;2023-12-20T11:02:31;1.83;;;0.93;;
26261;SDS011;13988;52.446;13.280;2023-12-20T11:07:53;3.45;;;0.88;;
26261;SDS011;13988;52.446;13.280;2023-12-20T11:10:31;5.90;;;1.83;;
26261;SDS011;13988;52.446;13.280;2023-12-20T11:13:23;7.43;;;1.20;;
26261;SDS011;13988;52.446;13.280;2023-12-20T11:16:10;1.38;;;1.08;;
26261;SDS011;13988;52.446;13.280;2023-12-20T11:18:36;8.20;;;0.98;;
26261;SDS011;13988;52.446;13.280;2023-12-20T11:21:02;3.53;;;1.52;;
26261;SDS011;13988;52.446;13.280;2023-12-20T11:23:30;2.30;;;1.40;;
26261;SDS011;13988;52.446;13.280;2023-12-20T11:26:01;2.88;;;1.48;;
26261;SDS011;13988;52.446;13.280;2023-12-20T11:28:28;4.15;;;1.52;;
26261;SDS011;13988;52.446;13.280;2023-12-20T11:30:55;1.60;;;0.98;;
26261;SDS011;13988;52.446;13.280;2023-12-20T11:33:32;6.72;;;1.45;;
26261;SDS011;13988;52.446;13.280;2023-12-20T11:36:01;10.35;;;2.17;;
26261;SDS011;13988;52.446;13.280;2023-12-20T11:38:35;4.82;;;0.85;;
26261;SDS011;13988;52.446;13.280;2023-12-20T11:41:07;7.38;;;1.52;;
26261;SDS011;13988;52.446;13.280;2023-12-20T11:43:36;3.78;;;1.30;;
26261;SDS011;13988;52.446;13.280;2023-12-20T11:46:05;6.30;;;1.45;;
26261;SDS011;13988;52.446;13.280;2023-12-20T11:48:35;5.78;;;0.90;;
26261;SDS011;13988;52.446;13.280;2023-12-20T11:51:02;5.45;;;1.10;;
26261;SDS011;13988;52.446;13.280;2023-12-20T11:53:34;4.00;;;1.60;;
26261;SDS011;13988;52.446;13.280;2023-12-20T11:55:59;5.22;;;1.10;;
26261;SDS011;13988;52.446;13.280;2023-12-20T11:58:27;5.00;;;1.00;;
26261;SDS011;13988;52.446;13.280;2023-12-20T12:00:53;2.85;;;1.00;;
26261;SDS011;13988;52.446;13.280;2023-12-20T12:03:20;0.77;;;0.77;;
26261;SDS011;13988;52.446;13.280;2023-12-20T12:05:49;5.50;;;1.48;;
26261;SDS011;13988;52.446;13.280;2023-12-20T12:08:15;1.27;;;0.80;;
26261;SDS011;13988;52.446;13.280;2023-12-20T12:10:42;2.40;;;0.98;;
26261;SDS011;13988;52.446;13.280;2023-12-20T12:13:09;6.55;;;1.25;;
26261;SDS011;13988;52.446;13.280;2023-12-20T12:15:35;1.23;;;1.13;;
26261;SDS011;13988;52.446;13.280;2023-12-20T12:18:01;3.20;;;1.73;;
26261;SDS011;13988;52.446;13.280;2023-12-20T12:20:27;2.03;;;1.17;;
26261;SDS011;13988;52.446;13.280;2023-12-20T12:23:05;4.75;;;2.00;;
26261;SDS011;13988;52.446;13.280;2023-12-20T12:25:32;7.95;;;1.27;;
26261;SDS011;13988;52.446;13.280;2023-12-20T12:28:00;9.55;;;1.48;;
26261;SDS011;13988;52.446;13.280;2023-12-20T12:30:26;3.72;;;1.23;;
26261;SDS011;13988;52.446;13.280;2023-12-20T12:32:53;4.20;;;1.63;;
26261;SDS011;13988;52.446;13.280;2023-12-20T12:35:19;1.88;;;0.90;;
26261;SDS011;13988;52.446;13.280;2023-12-20T12:37:45;5.05;;;2.20;;
26261;SDS011;13988;52.446;13.280;2023-12-20T12:40:12;6.05;;;1.85;;
26261;SDS011;13988;52.446;13.280;2023-12-20T12:42:39;2.72;;;1.27;;
26261;SDS011;13988;52.446;13.280;2023-12-20T12:45:05;6.93;;;1.00;;
26261;SDS011;13988;52.446;13.280;2023-12-20T12:47:32;7.95;;;1.23;;
26261;SDS011;13988;52.446;13.280;2023-12-20T12:49:59;1.88;;;1.30;;
26261;SDS011;13988;52.446;13.280;2023-12-20T12:52:25;5.43;;;1.27;;
26261;SDS011;13988;52.446;13.280;2023-12-20T12:54:51;6.30;;;2.10;;
26261;SDS011;13988;52.446;13.280;2023-12-20T12:57:18;5.05;;;1.30;;
26261;SDS011;13988;52.446;13.280;2023-12-20T12:59:44;9.75;;;1.05;;
26261;SDS011;13988;52.446;13.280;2023-12-20T13:02:11;5.10;;;1.50;;
26261;SDS011;13988;52.446;13.280;2023-12-20T13:04:38;4.82;;;1.15;;
26261;SDS011;13988;52.446;13.280;2023-12-20T13:07:05;1.95;;;1.00;;
26261;SDS011;13988;52.446;13.280;2023-12-20T13:09:31;1.17;;;0.93;;
26261;SDS011;13988;52.446;13.280;2023-12-20T13:11:56;4.32;;;1.55;;
26261;SDS011;13988;52.446;13.280;2023-12-20T13:14:22;4.75;;;1.58;;
26261;SDS011;13988;52.446;13.280;2023-12-20T13:16:48;3.72;;;1.40;;
26261;SDS011;13988;52.446;13.280;2023-12-20T13:19:13;6.57;;;1.52;;
26261;SDS011;13988;52.446;13.280;2023-12-20T13:21:39;11.45;;;1.65;;
26261;SDS011;13988;52.446;13.280;2023-12-20T13:24:05;3.72;;;1.63;;
26261;SDS011;13988;52.446;13.280;2023-12-20T13:26:31;4.32;;;1.67;;
26261;SDS011;13988;52.446;13.280;2023-12-20T13:28:57;1.60;;;0.80;;
26261;SDS011;13988;52.446;13.280;2023-12-20T13:31:23;4.25;;;1.17;;
26261;SDS011;13988;52.446;13.280;2023-12-20T13:33:49;1.35;;;1.15;;
26261;SDS011;13988;52.446;13.280;2023-12-20T13:36:16;1.13;;;1.02;;
26261;SDS011;13988;52.446;13.280;2023-12-20T13:38:42;1.75;;;1.17;;
26261;SDS011;13988;52.446;13.280;2023-12-20T13:41:08;7.63;;;0.95;;
26261;SDS011;13988;52.446;13.280;2023-12-20T13:43:34;0.52;;;0.52;;
26261;SDS011;13988;52.446;13.280;2023-12-20T13:46:00;0.95;;;0.68;;
26261;SDS011;13988;52.446;13.280;2023-12-20T13:48:26;0.40;;;0.40;;
26261;SDS011;13988;52.446;13.280;2023-12-20T13:50:51;0.93;;;0.88;;
26261;SDS011;13988;52.446;13.280;2023-12-20T13:53:17;0.60;;;0.60;;
26261;SDS011;13988;52.446;13.280;2023-12-20T13:55:44;1.05;;;0.82;;
26261;SDS011;13988;52.446;13.280;2023-12-20T13:58:09;0.63;;;0.57;;
26261;SDS011;13988;52.446;13.280;2023-12-20T14:00:35;2.83;;;0.85;;
26261;SDS011;13988;52.446;13.280;2023-12-20T14:03:01;0.30;;;0.30;;
26261;SDS011;13988;52.446;13.280;2023-12-20T14:05:28;0.10;;;0.10;;
26261;SDS011;13988;52.446;13.280;2023-12-20T14:07:54;1.02;;;0.85;;
26261;SDS011;13988;52.446;13.280;2023-12-20T14:10:22;0.10;;;0.10;;
26261;SDS011;13988;52.446;13.280;2023-12-20T14:12:48;0.65;;;0.30;;
26261;SDS011;13988;52.446;13.280;2023-12-20T14:15:14;0.17;;;0.17;;
26261;SDS011;13988;52.446;13.280;2023-12-20T14:17:40;2.25;;;0.30;;
26261;SDS011;13988;52.446;13.280;2023-12-20T14:20:09;0.20;;;0.20;;
26261;SDS011;13988;52.446;13.280;2023-12-20T14:22:36;0.35;;;0.35;;
26261;SDS011;13988;52.446;13.280;2023-12-20T14:25:03;1.52;;;0.40;;
26261;SDS011;13988;52.446;13.280;2023-12-20T14:27:29;1.83;;;0.73;;
26261;SDS011;13988;52.446;13.280;2023-12-20T14:29:55;0.20;;;0.20;;
26261;SDS011;13988;52.446;13.280;2023-12-20T14:32:21;0.45;;;0.30;;